createdAt,value
2019-06-20T00:01:12.776Z,13.07
2019-06-20T00:03:46.621Z,13.70
2019-06-20T00:06:19.672Z,13.70
2019-06-20T00:08:52.859Z,13.33
2019-06-20T00:11:25.457Z,14.50
2019-06-20T00:13:58.190Z,13.70
2019-06-20T00:16:31.101Z,13.43
2019-06-20T00:19:03.954Z,12.80
2019-06-20T00:21:37.101Z,13.43
2019-06-20T00:24:11.339Z,12.33
2019-06-20T00:26:43.677Z,12.40
2019-06-20T00:29:16.179Z,11.63
2019-06-20T00:31:48.895Z,10.73
2019-06-20T00:34:23.666Z,10.77
2019-06-20T00:36:56.876Z,10.33
2019-06-20T00:39:29.468Z,9.67
2019-06-20T00:42:02.297Z,10.10
2019-06-20T00:44:34.797Z,9.73
2019-06-20T00:47:07.417Z,7.90
2019-06-20T00:49:40.268Z,8.53
2019-06-20T00:52:13.106Z,6.90
2019-06-20T00:54:45.612Z,5.87
2019-06-20T00:57:18.683Z,6.30
2019-06-20T00:59:51.455Z,7.20
2019-06-20T01:02:24.066Z,7.33
2019-06-20T01:04:57.720Z,7.47
2019-06-20T01:07:30.408Z,6.97
2019-06-20T01:10:03.900Z,5.90
2019-06-20T01:12:37.595Z,5.53
2019-06-20T01:15:13.141Z,5.50
2019-06-20T01:17:45.863Z,5.33
2019-06-20T01:20:19.219Z,5.57
2019-06-20T01:22:52.173Z,5.20
2019-06-20T01:25:45.572Z,5.97
2019-06-20T01:28:18.239Z,5.50
2019-06-20T01:30:50.746Z,5.57
2019-06-20T01:33:25.652Z,5.00
2019-06-20T01:35:58.200Z,5.60
2019-06-20T01:38:30.720Z,4.67
2019-06-20T01:41:06.220Z,5.10
2019-06-20T01:43:50.110Z,4.97
2019-06-20T01:46:23.797Z,5.50
2019-06-20T01:48:56.580Z,5.50
2019-06-20T01:51:29.075Z,6.80
2019-06-20T01:54:01.479Z,6.60
2019-06-20T01:56:34.077Z,7.00
2019-06-20T01:59:06.478Z,7.70
2019-06-20T02:01:44.328Z,7.77
2019-06-20T02:04:21.781Z,8.00
2019-06-20T02:06:59.271Z,8.68
2019-06-20T02:09:38.451Z,8.77
2019-06-20T02:12:15.945Z,9.70
2019-06-20T02:14:53.543Z,10.10
2019-06-20T02:17:31.260Z,10.70
2019-06-20T02:20:04.715Z,11.33
2019-06-20T02:22:37.168Z,11.33
2019-06-20T02:25:10.775Z,10.63
2019-06-20T02:27:43.203Z,12.13
2019-06-20T02:30:17.687Z,10.70
2019-06-20T02:32:50.413Z,12.37
2019-06-20T02:35:23.048Z,12.97
2019-06-20T02:37:55.659Z,11.73
2019-06-20T02:40:28.693Z,10.80
2019-06-20T02:43:01.331Z,9.87
2019-06-20T02:45:39.503Z,9.60
2019-06-20T02:48:12.105Z,10.00
2019-06-20T02:50:44.629Z,10.80
2019-06-20T02:53:22.737Z,11.63
2019-06-20T02:56:00.954Z,10.63
2019-06-20T02:58:34.095Z,11.53
2019-06-20T03:01:06.944Z,11.23
2019-06-20T03:03:39.526Z,12.23
2019-06-20T03:06:11.886Z,11.20
2019-06-20T03:08:45.911Z,13.40
2019-06-20T03:11:18.671Z,12.63
2019-06-20T03:13:53.047Z,14.30
2019-06-20T03:16:25.947Z,13.63
2019-06-20T03:18:58.535Z,14.50
2019-06-20T03:24:51.531Z,15.63
2019-06-20T03:27:24.118Z,17.13
2019-06-20T03:29:56.786Z,17.23
2019-06-20T03:32:29.625Z,18.27
2019-06-20T03:35:02.854Z,19.63
2019-06-20T03:37:36.294Z,22.03
2019-06-20T03:40:10.266Z,21.83
2019-06-20T03:42:43.216Z,19.73
2019-06-20T03:45:17.826Z,20.60
2019-06-20T03:47:51.726Z,20.73
2019-06-20T03:50:24.767Z,22.35
2019-06-20T03:53:01.433Z,21.63
2019-06-20T03:55:34.619Z,22.50
2019-06-20T03:58:06.940Z,21.57
2019-06-20T04:00:39.710Z,21.97
2019-06-20T04:03:12.647Z,24.40
2019-06-20T04:05:45.249Z,25.03
2019-06-20T04:08:17.648Z,23.20
2019-06-20T04:10:51.416Z,24.60
2019-06-20T04:13:24.103Z,25.03
2019-06-20T04:15:56.809Z,25.77
2019-06-20T04:18:29.704Z,25.60
2019-06-20T04:21:02.320Z,26.93
2019-06-20T04:23:34.874Z,24.53
2019-06-20T04:26:09.770Z,24.80
2019-06-20T04:28:42.227Z,24.70
2019-06-20T04:31:14.652Z,25.70
2019-06-20T04:33:47.550Z,27.67
2019-06-20T04:36:20.600Z,26.40
2019-06-20T04:38:53.092Z,26.80
2019-06-20T04:41:25.866Z,29.10
2019-06-20T04:43:58.981Z,26.40
2019-06-20T04:46:43.729Z,28.90
2019-06-20T04:49:19.620Z,26.77
2019-06-20T04:51:53.689Z,27.80
2019-06-20T04:54:26.520Z,27.43
2019-06-20T04:56:59.054Z,27.93
2019-06-20T04:59:31.452Z,27.50
2019-06-20T05:02:05.381Z,30.52
2019-06-20T05:04:37.975Z,28.43
2019-06-20T05:07:19.517Z,27.70
2019-06-20T05:09:52.132Z,28.00
2019-06-20T05:12:24.710Z,27.97
2019-06-20T05:14:57.339Z,26.20
2019-06-20T05:17:29.881Z,27.43
2019-06-20T05:20:02.349Z,27.93
2019-06-20T05:22:35.281Z,29.30
2019-06-20T05:25:08.463Z,27.27
2019-06-20T05:27:41.068Z,27.63
2019-06-20T05:30:16.206Z,28.10
2019-06-20T05:32:49.413Z,28.67
2019-06-20T05:35:21.977Z,31.08
2019-06-20T05:37:54.732Z,27.80
2019-06-20T05:40:27.485Z,27.87
2019-06-20T05:43:00.153Z,27.87
2019-06-20T05:45:32.845Z,29.87
2019-06-20T05:48:05.968Z,28.97
2019-06-20T05:50:39.611Z,27.27
2019-06-20T05:53:14.752Z,27.83
2019-06-20T05:55:48.049Z,27.37
2019-06-20T05:58:20.723Z,28.23
2019-06-20T06:00:54.090Z,26.57
2019-06-20T06:03:27.644Z,27.17
2019-06-20T06:06:00.224Z,26.40
2019-06-20T06:08:34.049Z,29.50
2019-06-20T06:11:08.308Z,26.07
2019-06-20T06:13:40.771Z,26.20
2019-06-20T06:16:25.724Z,25.93
2019-06-20T06:19:00.937Z,26.20
2019-06-20T06:21:33.470Z,23.67
2019-06-20T06:24:06.519Z,24.53
2019-06-20T06:26:39.055Z,25.80
2019-06-20T06:29:11.697Z,25.80
2019-06-20T06:31:45.499Z,26.60
2019-06-20T06:34:21.167Z,27.07
2019-06-20T06:36:54.964Z,27.70
2019-06-20T06:39:27.759Z,27.35
2019-06-20T06:42:01.390Z,25.60
2019-06-20T06:44:34.861Z,23.97
2019-06-20T06:47:07.643Z,23.97
2019-06-20T06:49:40.536Z,23.00
2019-06-20T06:52:13.007Z,23.80
2019-06-20T06:54:47.096Z,21.77
2019-06-20T06:57:19.613Z,23.02
2019-06-20T06:59:52.207Z,22.23
2019-06-20T07:02:25.068Z,20.43
2019-06-20T07:04:57.676Z,21.97
2019-06-20T07:07:30.322Z,22.20
2019-06-20T07:10:06.408Z,19.90
2019-06-20T07:12:39.326Z,18.77
2019-06-20T07:15:14.877Z,17.97
2019-06-20T07:17:47.912Z,18.30
2019-06-20T07:20:20.884Z,17.53
2019-06-20T07:22:53.964Z,18.00
2019-06-20T07:25:26.896Z,15.93
2019-06-20T07:28:00.095Z,16.40
2019-06-20T07:30:32.742Z,16.37
2019-06-20T07:33:06.007Z,17.43
2019-06-20T07:35:41.878Z,17.62
2019-06-20T07:38:16.041Z,15.80
2019-06-20T07:40:49.035Z,16.03
2019-06-20T07:43:21.844Z,14.63
2019-06-20T07:46:02.673Z,14.47
2019-06-20T07:48:36.359Z,12.93
2019-06-20T07:51:09.041Z,13.40
2019-06-20T07:53:42.065Z,13.10
2019-06-20T07:56:14.764Z,12.23
2019-06-20T07:58:47.248Z,12.10
2019-06-20T08:01:20.335Z,11.93
2019-06-20T08:03:53.546Z,12.67
2019-06-20T08:06:27.136Z,13.15
2019-06-20T08:09:00.311Z,11.83
2019-06-20T08:11:32.873Z,13.00
2019-06-20T08:14:05.704Z,11.53
2019-06-20T08:16:39.980Z,11.65
2019-06-20T08:19:12.585Z,10.17
2019-06-20T08:21:45.147Z,10.50
2019-06-20T08:24:18.730Z,9.73
2019-06-20T08:26:52.300Z,10.27
2019-06-20T08:29:25.849Z,9.93
2019-06-20T08:32:00.740Z,9.50
2019-06-20T08:34:34.652Z,9.48
2019-06-20T08:37:07.998Z,9.03
2019-06-20T08:39:42.893Z,8.90
2019-06-20T08:42:15.904Z,8.23
2019-06-20T08:44:49.474Z,8.33
2019-06-20T08:47:27.264Z,9.00
2019-06-20T08:50:01.400Z,9.20
2019-06-20T08:52:34.339Z,8.80
2019-06-20T08:55:08.038Z,8.87
2019-06-20T08:57:40.609Z,8.30
2019-06-20T09:00:15.716Z,7.77
2019-06-20T09:02:48.655Z,7.90
2019-06-20T09:05:22.062Z,9.60
2019-06-20T09:07:55.364Z,9.53
2019-06-20T09:10:39.015Z,9.50
2019-06-20T09:13:12.888Z,8.83
2019-06-20T09:15:45.520Z,6.73
2019-06-20T09:18:18.522Z,6.15
2019-06-20T09:20:52.678Z,6.67
2019-06-20T09:23:25.730Z,7.13
2019-06-20T09:25:59.564Z,7.70
2019-06-20T09:28:35.261Z,8.03
2019-06-20T09:31:07.942Z,8.00
2019-06-20T09:33:40.801Z,8.03
2019-06-20T09:36:13.899Z,7.77
2019-06-20T09:38:46.554Z,7.77
2019-06-20T09:41:20.722Z,6.97
2019-06-20T09:43:54.290Z,5.47
2019-06-20T09:46:27.006Z,6.33
2019-06-20T09:49:02.684Z,6.50
2019-06-20T09:51:42.089Z,6.30
2019-06-20T09:54:21.508Z,6.40
2019-06-20T09:57:04.697Z,6.80
2019-06-20T10:00:37.609Z,6.60
2019-06-20T10:03:38.402Z,6.00
2019-06-20T10:06:14.328Z,6.30
2019-06-20T10:08:49.984Z,5.77
2019-06-20T10:11:22.767Z,5.37
2019-06-20T10:13:58.524Z,4.87
2019-06-20T10:16:45.033Z,5.00
2019-06-20T10:19:19.311Z,5.73
2019-06-20T10:21:52.211Z,6.30
2019-06-20T10:24:24.813Z,5.13
2019-06-20T10:26:58.007Z,4.80
2019-06-20T10:29:31.695Z,4.93
2019-06-20T10:32:04.697Z,5.40
2019-06-20T10:34:37.629Z,6.20
2019-06-20T10:37:10.668Z,4.77
2019-06-20T10:39:44.511Z,4.77
2019-06-20T10:42:19.160Z,4.60
2019-06-20T10:44:52.239Z,4.90
2019-06-20T10:47:33.654Z,4.80
2019-06-20T10:50:10.355Z,5.27
2019-06-20T10:52:43.663Z,5.50
2019-06-20T10:55:16.640Z,5.40
2019-06-20T10:57:50.073Z,5.20
2019-06-20T11:00:32.029Z,4.40
2019-06-20T11:03:04.806Z,4.10
2019-06-20T11:05:39.065Z,4.70
2019-06-20T11:08:13.128Z,4.80
2019-06-20T11:10:47.194Z,4.20
2019-06-20T11:13:20.416Z,4.37
2019-06-20T11:16:11.166Z,4.30
2019-06-20T11:18:44.128Z,4.40
2019-06-20T11:21:16.785Z,4.03
2019-06-20T11:23:50.622Z,4.47
2019-06-20T11:26:23.509Z,3.90
2019-06-20T11:28:56.149Z,4.50
2019-06-20T11:31:31.126Z,4.40
2019-06-20T11:34:06.359Z,4.70
2019-06-20T11:36:42.432Z,4.47
2019-06-20T11:39:15.073Z,4.63
2019-06-20T11:41:48.632Z,4.50
2019-06-20T11:44:26.434Z,4.83
2019-06-20T11:47:00.832Z,4.57
2019-06-20T11:52:49.883Z,4.80
2019-06-20T11:55:26.894Z,4.30
2019-06-20T11:58:05.591Z,4.22
2019-06-20T12:01:02.711Z,4.53
2019-06-20T12:03:44.598Z,3.93
2019-06-20T12:06:22.272Z,4.37
2019-06-20T12:08:56.541Z,4.33
2019-06-20T12:11:31.017Z,5.07
2019-06-20T12:14:07.171Z,5.00
2019-06-20T12:16:42.760Z,4.67
2019-06-20T12:19:17.886Z,4.40
2019-06-20T12:21:54.332Z,5.13
2019-06-20T12:24:29.246Z,5.00
2019-06-20T12:27:02.126Z,4.60
2019-06-20T12:29:34.633Z,4.70
2019-06-20T12:32:10.222Z,4.23
2019-06-20T12:34:44.564Z,5.50
2019-06-20T12:37:23.259Z,5.33
2019-06-20T12:40:03.738Z,5.20
2019-06-20T12:42:41.830Z,4.73
2019-06-20T12:45:24.300Z,4.90
2019-06-20T12:48:01.049Z,4.67
2019-06-20T12:50:36.544Z,5.57
2019-06-20T12:53:14.095Z,5.00
2019-06-20T12:55:50.790Z,4.87
2019-06-20T12:58:29.011Z,5.43
2019-06-20T13:03:55.544Z,5.80
2019-06-20T13:06:32.399Z,5.67
2019-06-20T13:09:09.839Z,5.30
2019-06-20T13:11:42.838Z,6.25
2019-06-20T13:14:16.027Z,7.05
2019-06-20T13:16:52.780Z,8.00
2019-06-20T13:19:25.886Z,7.30
2019-06-20T13:21:58.485Z,8.57
2019-06-20T13:24:35.721Z,8.45
2019-06-20T13:27:20.362Z,8.30
2019-06-20T13:30:06.143Z,7.47
2019-06-20T13:32:54.697Z,8.03
2019-06-20T13:35:34.755Z,8.00
2019-06-20T13:38:14.356Z,8.23
2019-06-20T13:40:47.368Z,7.90
2019-06-20T13:43:20.194Z,7.97
2019-06-20T13:46:10.592Z,7.63
2019-06-20T13:48:45.780Z,7.77
2019-06-20T13:51:18.815Z,7.90
2019-06-20T13:53:54.968Z,7.83
2019-06-20T13:56:28.227Z,7.83
2019-06-20T13:59:00.713Z,8.00
2019-06-20T14:01:34.413Z,8.20
2019-06-20T14:04:10.499Z,8.88
2019-06-20T14:06:45.448Z,8.57
2019-06-20T14:09:18.492Z,8.30
2019-06-20T14:11:54.960Z,8.15
2019-06-20T14:14:28.556Z,7.23
2019-06-20T14:17:02.378Z,7.63
2019-06-20T14:19:35.459Z,8.40
2019-06-20T14:22:10.221Z,7.50
2019-06-20T14:24:45.047Z,7.13
2019-06-20T14:27:18.072Z,7.03
2019-06-20T14:29:52.004Z,7.33
2019-06-20T14:32:30.602Z,6.80
2019-06-20T14:35:03.814Z,6.73
2019-06-20T14:37:37.000Z,7.13
2019-06-20T14:40:12.446Z,6.83
2019-06-20T14:42:45.995Z,7.10
2019-06-20T14:45:20.354Z,7.20
2019-06-20T14:47:52.949Z,7.30
2019-06-20T14:50:26.173Z,6.90
2019-06-20T14:52:59.129Z,6.50
2019-06-20T14:55:32.648Z,6.13
2019-06-20T14:58:08.318Z,5.80
2019-06-20T15:01:09.389Z,5.93
2019-06-20T15:03:42.176Z,6.17
2019-06-20T15:06:15.284Z,6.30
2019-06-20T15:08:49.537Z,5.17
2019-06-20T15:11:23.753Z,4.97
2019-06-20T15:13:56.416Z,4.47
2019-06-20T15:16:29.003Z,4.35
2019-06-20T15:19:02.233Z,3.87
2019-06-20T15:21:35.221Z,3.73
2019-06-20T15:24:07.706Z,3.47
2019-06-20T15:26:41.999Z,3.10
2019-06-20T15:29:16.396Z,3.23
2019-06-20T15:31:54.901Z,3.00
2019-06-20T15:34:43.981Z,3.13
2019-06-20T15:37:16.711Z,3.20
2019-06-20T15:39:51.387Z,3.33
2019-06-20T15:42:26.478Z,3.70
2019-06-20T15:45:01.605Z,3.27
2019-06-20T15:47:35.784Z,4.30
2019-06-20T15:50:10.522Z,4.30
2019-06-20T15:52:43.820Z,3.97
2019-06-20T15:55:20.899Z,4.10
2019-06-20T15:57:54.322Z,3.50
2019-06-20T16:00:28.707Z,3.03
2019-06-20T16:03:09.831Z,2.77
2019-06-20T16:05:49.009Z,3.05
2019-06-20T16:08:21.668Z,2.83
2019-06-20T16:10:54.624Z,2.37
2019-06-20T16:13:27.399Z,2.50
2019-06-20T16:16:01.215Z,3.33
2019-06-20T16:18:33.808Z,3.37
2019-06-20T16:21:09.633Z,2.97
2019-06-20T16:23:43.180Z,3.07
2019-06-20T16:26:15.988Z,2.60
2019-06-20T16:28:48.981Z,2.90
2019-06-20T16:31:26.703Z,2.73
2019-06-20T16:33:59.981Z,3.30
2019-06-20T16:36:32.757Z,3.37
2019-06-20T16:39:09.285Z,3.20
2019-06-20T16:41:41.942Z,3.63
2019-06-20T16:44:15.170Z,3.10
2019-06-20T16:46:48.064Z,3.27
2019-06-20T16:49:20.790Z,3.07
2019-06-20T16:51:53.883Z,3.30
2019-06-20T16:54:27.075Z,3.30
2019-06-20T16:56:59.687Z,3.03
2019-06-20T16:59:33.297Z,3.50
2019-06-20T17:02:06.460Z,3.43
2019-06-20T17:04:39.902Z,3.70
2019-06-20T17:07:12.472Z,3.20
2019-06-20T17:09:46.541Z,2.90
2019-06-20T17:12:19.374Z,2.80
2019-06-20T17:14:54.603Z,3.33
2019-06-20T17:17:28.011Z,3.13
2019-06-20T17:20:00.738Z,3.07
2019-06-20T17:22:34.371Z,2.90
2019-06-20T17:25:07.558Z,2.97
2019-06-20T17:27:40.350Z,3.20
2019-06-20T17:30:17.727Z,3.60
2019-06-20T17:32:50.972Z,2.90
2019-06-20T17:35:23.841Z,3.60
2019-06-20T17:37:56.922Z,5.47
2019-06-20T17:40:31.237Z,3.80
2019-06-20T17:43:05.414Z,3.37
2019-06-20T17:45:38.729Z,2.80
2019-06-20T17:48:12.795Z,2.50
2019-06-20T17:50:49.288Z,2.57
2019-06-20T17:53:22.577Z,2.67
2019-06-20T17:55:56.500Z,2.57
2019-06-20T17:58:29.561Z,2.83
2019-06-20T18:01:02.365Z,2.50
2019-06-20T18:03:36.014Z,2.70
2019-06-20T18:06:09.787Z,2.60
2019-06-20T18:08:42.637Z,2.80
2019-06-20T18:11:16.491Z,2.97
2019-06-20T18:13:50.038Z,3.30
2019-06-20T18:16:25.397Z,3.33
2019-06-20T18:19:01.633Z,3.40
2019-06-20T18:21:34.307Z,3.33
2019-06-20T18:24:07.288Z,3.77
2019-06-20T18:26:40.423Z,3.73
2019-06-20T18:29:14.350Z,3.72
2019-06-20T18:31:47.802Z,4.53
2019-06-20T18:34:29.929Z,4.13
2019-06-20T18:37:03.278Z,3.63
2019-06-20T18:39:36.342Z,4.17
2019-06-20T18:42:09.051Z,4.32
2019-06-20T18:44:41.856Z,4.30
2019-06-20T18:47:14.533Z,4.47
2019-06-20T18:49:47.969Z,4.17
2019-06-20T18:52:20.622Z,4.23
2019-06-20T18:54:54.257Z,3.93
2019-06-20T18:57:26.827Z,5.23
2019-06-20T18:59:59.731Z,4.90
2019-06-20T19:02:32.472Z,5.13
2019-06-20T19:05:07.166Z,5.23
2019-06-20T19:07:39.914Z,6.40
2019-06-20T19:10:19.563Z,6.10
2019-06-20T19:12:52.642Z,6.07
2019-06-20T19:15:25.748Z,5.97
2019-06-20T19:17:59.351Z,5.00
2019-06-20T19:20:32.442Z,6.73
2019-06-20T19:23:05.196Z,6.33
2019-06-20T19:25:37.797Z,6.00
2019-06-20T19:28:11.089Z,6.13
2019-06-20T19:30:49.774Z,6.13
2019-06-20T19:33:22.769Z,6.63
2019-06-20T19:35:55.495Z,6.57
2019-06-20T19:38:28.176Z,7.07
2019-06-20T19:41:00.872Z,6.75
2019-06-20T19:43:33.479Z,7.33
2019-06-20T19:46:06.507Z,6.00
2019-06-20T19:48:39.288Z,6.53
2019-06-20T19:51:12.013Z,6.27
2019-06-20T19:53:45.983Z,7.77
2019-06-20T19:56:18.875Z,7.97
2019-06-20T19:58:53.732Z,7.87
2019-06-20T20:01:26.781Z,8.60
2019-06-20T20:03:59.399Z,9.40
2019-06-20T20:06:32.243Z,10.18
2019-06-20T20:09:06.528Z,9.80
2019-06-20T20:11:39.589Z,9.53
2019-06-20T20:14:12.178Z,11.07
2019-06-20T20:16:46.930Z,12.27
2019-06-20T20:19:19.523Z,11.10
2019-06-20T20:21:53.459Z,10.93
2019-06-20T20:24:26.404Z,11.37
2019-06-20T20:26:59.122Z,12.00
2019-06-20T20:29:31.641Z,11.40
2019-06-20T20:32:04.522Z,11.07
2019-06-20T20:34:37.407Z,12.07
2019-06-20T20:37:10.172Z,9.90
2019-06-20T20:39:42.719Z,10.80
2019-06-20T20:42:17.736Z,12.87
2019-06-20T20:44:51.204Z,10.63
2019-06-20T20:47:24.333Z,11.03
2019-06-20T20:49:57.475Z,13.17
2019-06-20T20:52:30.460Z,11.73
2019-06-20T20:55:03.301Z,11.57
2019-06-20T20:57:36.518Z,10.60
2019-06-20T21:00:09.460Z,11.43
2019-06-20T21:02:44.765Z,13.77
2019-06-20T21:05:17.392Z,13.83
2019-06-20T21:07:50.376Z,13.63
2019-06-20T21:10:24.088Z,13.60
2019-06-20T21:12:57.030Z,15.83
2019-06-20T21:15:29.869Z,13.73
2019-06-20T21:18:02.690Z,16.70
2019-06-20T21:20:35.801Z,16.90
2019-06-20T21:23:08.593Z,20.60
2019-06-20T21:25:41.255Z,21.07
2019-06-20T21:28:13.845Z,20.07
2019-06-20T21:30:46.565Z,14.23
2019-06-20T21:33:19.260Z,15.90
2019-06-20T21:36:07.521Z,12.20
2019-06-20T21:38:41.719Z,12.87
2019-06-20T21:41:14.319Z,14.03
2019-06-20T21:43:47.072Z,14.30
2019-06-20T21:46:19.655Z,17.45
2019-06-20T21:48:53.577Z,17.90
2019-06-20T21:51:26.232Z,18.23
2019-06-20T21:53:59.188Z,17.35
2019-06-20T21:56:31.906Z,15.53
2019-06-20T21:59:04.678Z,14.00
2019-06-20T22:01:37.904Z,14.20
2019-06-20T22:04:11.147Z,20.60
2019-06-20T22:06:43.785Z,21.40
2019-06-20T22:09:16.332Z,18.43
2019-06-20T22:11:49.453Z,19.97
2019-06-20T22:14:22.392Z,15.80
2019-06-20T22:16:54.944Z,17.87
2019-06-20T22:19:27.580Z,17.70
2019-06-20T22:22:00.245Z,23.50
2019-06-20T22:24:32.984Z,21.50
2019-06-20T22:27:05.625Z,19.17
2019-06-20T22:29:38.333Z,28.23
2019-06-20T22:32:10.824Z,25.90
2019-06-20T22:34:43.409Z,28.37
2019-06-20T22:37:16.218Z,32.60
2019-06-20T22:39:49.304Z,31.73
2019-06-20T22:42:21.820Z,26.23
2019-06-20T22:44:54.398Z,26.97
2019-06-20T22:47:26.825Z,29.65
2019-06-20T22:50:01.043Z,30.55
2019-06-20T22:52:34.451Z,29.90
2019-06-20T22:55:07.694Z,22.93
2019-06-20T22:57:40.346Z,20.90
2019-06-20T23:00:15.900Z,19.30
2019-06-20T23:02:48.470Z,25.50
2019-06-20T23:05:21.538Z,21.37
2019-06-20T23:07:54.271Z,23.50
2019-06-20T23:10:26.803Z,27.73
2019-06-20T23:12:59.411Z,22.53
2019-06-20T23:15:32.112Z,28.07
2019-06-20T23:18:04.998Z,27.53
2019-06-20T23:20:37.648Z,31.03
2019-06-20T23:23:11.581Z,34.27
2019-06-20T23:25:49.122Z,30.13
2019-06-20T23:28:22.478Z,37.77
2019-06-20T23:30:55.962Z,33.50
2019-06-20T23:33:28.418Z,30.60
2019-06-20T23:36:01.125Z,29.37
2019-06-20T23:38:33.599Z,30.33
2019-06-20T23:41:06.236Z,30.27
2019-06-20T23:43:38.799Z,29.63
2019-06-20T23:46:11.532Z,27.27
2019-06-20T23:48:43.979Z,24.37
2019-06-20T23:51:25.407Z,25.07
2019-06-20T23:53:58.429Z,26.80
2019-06-20T23:56:30.943Z,29.17
2019-06-20T23:59:03.547Z,31.20
